Bucks Bridge, New York
Current Conditions -  °F | °C
As of 4:03 AM on Saturday 22 Nov 2014 (Local Time) from KMSS Reporting Station
Broken Clouds Broken Clouds  
Wind Chill: 13°   Ceiling: 2600
Heat Index: 23°   Visibility: 10mi
Dew Point: 14°   Wind: 9mph
Humidity: 68%   Direction: 200°SSW
Pressure: 30.26"   Gusts: NA
Location:  44.5792°N, 75.1592°W
Report Text: KMSS 220903Z AUTO 20008KT 10SM BKN026 BKN031 M05/M10 A3026 RMK AO2 T10501100
Loading
Personal Weather Stations






























Interactive Weather Map New forecast layout! Learn more

10-Day Weather Forecast

Advertisements
Track Severe Weather on mobile